createdAt,value
2017-03-01T00:00:10.501Z,71860
2017-03-01T00:00:20.659Z,71850
2017-03-01T00:00:30.847Z,71850
2017-03-01T00:00:41.422Z,71846
2017-03-01T00:00:51.588Z,71851
2017-03-01T00:01:02.151Z,71851
2017-03-01T00:01:12.683Z,71853
2017-03-01T00:01:23.290Z,71834
2017-03-01T00:01:33.464Z,71839
2017-03-01T00:01:44.027Z,71842
2017-03-01T00:01:54.559Z,71829
2017-03-01T00:02:04.757Z,71833
2017-03-01T00:02:15.299Z,71831
2017-03-01T00:02:25.845Z,71813
2017-03-01T00:02:35.648Z,71818
2017-03-01T00:02:46.249Z,71825
2017-03-01T00:02:56.796Z,71827
2017-03-01T00:03:07.340Z,71822
2017-03-01T00:03:17.504Z,71834
2017-03-01T00:03:28.060Z,71833
2017-03-01T00:03:38.627Z,71827
2017-03-01T00:03:49.176Z,71840
2017-03-01T00:03:59.397Z,71846
2017-03-01T00:04:09.939Z,71837
2017-03-01T00:04:20.121Z,71834
2017-03-01T00:04:30.319Z,71844
2017-03-01T00:04:40.939Z,71853
2017-03-01T00:04:51.493Z,71862
2017-03-01T00:05:02.030Z,71856
2017-03-01T00:05:12.196Z,71859
2017-03-01T00:05:22.370Z,71856
2017-03-01T00:05:32.945Z,71855
2017-03-01T00:05:43.486Z,71855
2017-03-01T00:05:54.035Z,71856
2017-03-01T00:06:04.598Z,71847
2017-03-01T00:06:15.155Z,71840
2017-03-01T00:06:25.708Z,71845
2017-03-01T00:06:36.247Z,71838
2017-03-01T00:06:46.794Z,71829
2017-03-01T00:06:57.359Z,71839
2017-03-01T00:07:07.929Z,71839
2017-03-01T00:07:18.506Z,71833
2017-03-01T00:07:28.674Z,71836
2017-03-01T00:07:38.836Z,71836
2017-03-01T00:07:49.410Z,71828
2017-03-01T00:07:59.602Z,71835
2017-03-01T00:08:09.793Z,71836
2017-03-01T00:08:20.376Z,71840
2017-03-01T00:08:30.549Z,71862
2017-03-01T00:08:41.122Z,71854
2017-03-01T00:08:51.684Z,71830
2017-03-01T00:09:02.263Z,71825
2017-03-01T00:09:12.846Z,71835
2017-03-01T00:09:23.390Z,71837
2017-03-01T00:09:33.593Z,71843
2017-03-01T00:09:44.136Z,71838
2017-03-01T00:09:54.710Z,71832
2017-03-01T00:10:05.253Z,71838
2017-03-01T00:10:15.809Z,71842
2017-03-01T00:10:26.378Z,71838
2017-03-01T00:10:36.558Z,71845
2017-03-01T00:10:47.128Z,71852
2017-03-01T00:10:57.299Z,71860
2017-03-01T00:11:07.835Z,71863
2017-03-01T00:11:18.386Z,71858
2017-03-01T00:11:28.542Z,71859
2017-03-01T00:11:38.330Z,71861
2017-03-01T00:11:48.881Z,71854
2017-03-01T00:11:59.417Z,71856
2017-03-01T00:12:09.603Z,71860
2017-03-01T00:12:20.135Z,71866
2017-03-01T00:12:30.707Z,71877
2017-03-01T00:12:41.242Z,71875
2017-03-01T00:12:51.797Z,71866
2017-03-01T00:13:02.333Z,71869
2017-03-01T00:13:12.873Z,71877
2017-03-01T00:13:23.082Z,71872
2017-03-01T00:13:33.273Z,71879
2017-03-01T00:13:43.820Z,71876
2017-03-01T00:13:54.033Z,71877
2017-03-01T00:14:04.598Z,71868
2017-03-01T00:14:15.164Z,71866
2017-03-01T00:14:25.707Z,71873
2017-03-01T00:14:35.872Z,71877
2017-03-01T00:14:46.423Z,71869
2017-03-01T00:14:56.957Z,71876
2017-03-01T00:15:07.120Z,71882
2017-03-01T00:15:17.291Z,71886
2017-03-01T00:15:27.864Z,71885
2017-03-01T00:15:38.421Z,71882
2017-03-01T00:15:48.998Z,71874
2017-03-01T00:15:59.193Z,71874
2017-03-01T00:16:09.345Z,71877
2017-03-01T00:16:19.924Z,71875
2017-03-01T00:16:30.105Z,71867
2017-03-01T00:16:40.278Z,71871
2017-03-01T00:16:50.828Z,71864
2017-03-01T00:17:01.368Z,71860
2017-03-01T00:17:11.898Z,71868
2017-03-01T00:17:22.475Z,71870
2017-03-01T00:17:32.288Z,71870
2017-03-01T00:17:42.834Z,71870
2017-03-01T00:17:53.437Z,71869
2017-03-01T00:18:03.595Z,71863
2017-03-01T00:18:14.145Z,71859
2017-03-01T00:18:24.693Z,71864
2017-03-01T00:18:35.229Z,71861
2017-03-01T00:18:45.775Z,71864
2017-03-01T00:18:55.959Z,71867
2017-03-01T00:19:06.499Z,71862
2017-03-01T00:19:17.056Z,71864
2017-03-01T00:19:27.240Z,71861
2017-03-01T00:19:37.810Z,71870
2017-03-01T00:19:48.383Z,71875
2017-03-01T00:19:58.944Z,71876
2017-03-01T00:20:09.516Z,71867
2017-03-01T00:20:20.068Z,71868
2017-03-01T00:20:30.248Z,71870
2017-03-01T00:20:40.808Z,71868
2017-03-01T00:20:51.355Z,71867
2017-03-01T00:21:01.908Z,71867
2017-03-01T00:21:12.446Z,71868
2017-03-01T00:21:22.977Z,71874
2017-03-01T00:21:32.777Z,71869
2017-03-01T00:21:43.333Z,71873
2017-03-01T00:21:53.874Z,71862
2017-03-01T00:22:04.057Z,71849
2017-03-01T00:22:14.610Z,71854
2017-03-01T00:22:25.147Z,71868
2017-03-01T00:22:35.321Z,71866
2017-03-01T00:22:45.879Z,71872
2017-03-01T00:22:56.073Z,71862
2017-03-01T00:23:06.647Z,71868
2017-03-01T00:23:17.190Z,71876
2017-03-01T00:23:27.744Z,71875
2017-03-01T00:23:38.285Z,71879
2017-03-01T00:23:48.460Z,71874
2017-03-01T00:23:58.656Z,71875
2017-03-01T00:24:09.209Z,71876
2017-03-01T00:24:19.733Z,71875
2017-03-01T00:24:29.963Z,71872
2017-03-01T00:24:40.502Z,71879
2017-03-01T00:24:51.052Z,71880
2017-03-01T00:25:01.598Z,71863
2017-03-01T00:25:12.136Z,71863
2017-03-01T00:25:22.686Z,71867
2017-03-01T00:25:33.260Z,71865
2017-03-01T00:25:43.804Z,71866
2017-03-01T00:25:54.344Z,71866
2017-03-01T00:26:04.965Z,71861
2017-03-01T00:26:15.515Z,71864
2017-03-01T00:26:25.682Z,71852
2017-03-01T00:26:35.830Z,71853
2017-03-01T00:26:46.430Z,71857
2017-03-01T00:26:56.982Z,71862
2017-03-01T00:27:07.563Z,71867
2017-03-01T00:27:17.711Z,71874
2017-03-01T00:27:28.225Z,71878
2017-03-01T00:27:38.412Z,71879
2017-03-01T00:27:49.011Z,71878
2017-03-01T00:27:59.548Z,71880
2017-03-01T00:28:09.716Z,71884
2017-03-01T00:28:20.282Z,71870
2017-03-01T00:28:30.850Z,71875
2017-03-01T00:28:41.395Z,71878
2017-03-01T00:28:51.959Z,71879
2017-03-01T00:29:02.499Z,71876
2017-03-01T00:29:13.052Z,71882
2017-03-01T00:29:23.233Z,71887
2017-03-01T00:29:33.778Z,71878
2017-03-01T00:29:44.361Z,71851
2017-03-01T00:29:54.906Z,71858
2017-03-01T00:30:05.523Z,71862
2017-03-01T00:30:16.097Z,71854
2017-03-01T00:30:25.894Z,71861
2017-03-01T00:30:36.453Z,71852
2017-03-01T00:30:46.987Z,71841
2017-03-01T00:30:57.533Z,71847
2017-03-01T00:31:08.082Z,71865
2017-03-01T00:31:18.630Z,71872
2017-03-01T00:31:29.212Z,71860
2017-03-01T00:31:39.749Z,71868
2017-03-01T00:31:49.924Z,71867
2017-03-01T00:32:00.467Z,71854
2017-03-01T00:32:10.995Z,71844
2017-03-01T00:32:21.544Z,71850
2017-03-01T00:32:31.703Z,71848
2017-03-01T00:32:41.880Z,71847
2017-03-01T00:32:52.413Z,71851
2017-03-01T00:33:02.625Z,71856
2017-03-01T00:33:13.137Z,71859
2017-03-01T00:33:23.311Z,71860
2017-03-01T00:33:33.476Z,71863
2017-03-01T00:33:44.027Z,71868
2017-03-01T00:33:54.606Z,71871
2017-03-01T00:34:04.798Z,71866
2017-03-01T00:34:15.014Z,71867
2017-03-01T00:34:25.566Z,71871
2017-03-01T00:34:36.143Z,71876
2017-03-01T00:34:46.689Z,71874
2017-03-01T00:34:57.232Z,71873
2017-03-01T00:35:07.391Z,71876
2017-03-01T00:35:18.001Z,71874
2017-03-01T00:35:28.170Z,71863
2017-03-01T00:35:38.706Z,71862
2017-03-01T00:35:49.233Z,71871
2017-03-01T00:35:59.814Z,71871
2017-03-01T00:36:09.968Z,71865
2017-03-01T00:36:20.530Z,71867
2017-03-01T00:36:30.320Z,71869
2017-03-01T00:36:40.854Z,71872
2017-03-01T00:36:51.429Z,71879
2017-03-01T00:37:01.949Z,71879
2017-03-01T00:37:12.521Z,71877
2017-03-01T00:37:23.128Z,71871
2017-03-01T00:37:33.313Z,71872
2017-03-01T00:37:43.882Z,71874
2017-03-01T00:37:54.460Z,71873
2017-03-01T00:38:05.000Z,71880
2017-03-01T00:38:15.542Z,71885
2017-03-01T00:38:25.716Z,71887
2017-03-01T00:38:36.255Z,71890
2017-03-01T00:38:46.417Z,71885
2017-03-01T00:38:56.975Z,71885
2017-03-01T00:39:07.534Z,71888
2017-03-01T00:39:18.097Z,71885
2017-03-01T00:39:28.297Z,71891
2017-03-01T00:39:38.843Z,71890
2017-03-01T00:39:49.036Z,71893
2017-03-01T00:39:59.599Z,71889
2017-03-01T00:40:10.176Z,71890
2017-03-01T00:40:20.736Z,71896
2017-03-01T00:40:31.332Z,71902
2017-03-01T00:40:41.565Z,71901
2017-03-01T00:40:52.122Z,71901
2017-03-01T00:41:02.738Z,71900
2017-03-01T00:41:13.292Z,71889
2017-03-01T00:41:23.835Z,71880
2017-03-01T00:41:34.425Z,71885
2017-03-01T00:41:44.974Z,71882
2017-03-01T00:41:55.518Z,71877
2017-03-01T00:42:06.063Z,71878
2017-03-01T00:42:16.248Z,71883
2017-03-01T00:42:26.795Z,71886
2017-03-01T00:42:36.955Z,71892
2017-03-01T00:42:47.492Z,71894
2017-03-01T00:42:57.662Z,71894
2017-03-01T00:43:08.217Z,71891
2017-03-01T00:43:18.754Z,71893
2017-03-01T00:43:29.307Z,71895
2017-03-01T00:43:39.871Z,71893
2017-03-01T00:43:50.419Z,71896
2017-03-01T00:44:00.968Z,71888
2017-03-01T00:44:11.510Z,71876
2017-03-01T00:44:22.087Z,71878
2017-03-01T00:44:32.236Z,71885
2017-03-01T00:44:42.772Z,71896
2017-03-01T00:44:52.964Z,71896
2017-03-01T00:45:03.141Z,71889
2017-03-01T00:45:13.708Z,71884
2017-03-01T00:45:24.310Z,71876
2017-03-01T00:45:34.500Z,71889
2017-03-01T00:45:45.081Z,71901
2017-03-01T00:45:55.262Z,71882
2017-03-01T00:46:05.819Z,71887
2017-03-01T00:46:16.374Z,71885
2017-03-01T00:46:26.560Z,71896
2017-03-01T00:46:36.360Z,71900
2017-03-01T00:46:46.911Z,71897
2017-03-01T00:46:57.472Z,71892
2017-03-01T00:47:08.006Z,71894
2017-03-01T00:47:18.590Z,71900
2017-03-01T00:47:29.142Z,71897
2017-03-01T00:47:39.318Z,71899
2017-03-01T00:47:49.856Z,71896
2017-03-01T00:48:00.413Z,71899
2017-03-01T00:48:10.965Z,71900
2017-03-01T00:48:21.524Z,71900
2017-03-01T00:48:31.311Z,71898
2017-03-01T00:48:41.480Z,71897
2017-03-01T00:48:52.036Z,71897
2017-03-01T00:49:02.586Z,71893
2017-03-01T00:49:13.152Z,71899
2017-03-01T00:49:23.316Z,71897
2017-03-01T00:49:33.864Z,71900
2017-03-01T00:49:44.398Z,71902
2017-03-01T00:49:54.589Z,71907
2017-03-01T00:50:04.762Z,71911
2017-03-01T00:50:15.300Z,71910
2017-03-01T00:50:25.829Z,71916
2017-03-01T00:50:36.370Z,71920
2017-03-01T00:50:46.917Z,71919
2017-03-01T00:50:57.457Z,71922
2017-03-01T00:51:08.031Z,71925
2017-03-01T00:51:18.576Z,71921
2017-03-01T00:51:28.356Z,71912
2017-03-01T00:51:38.507Z,71902
2017-03-01T00:51:49.048Z,71901
2017-03-01T00:51:59.258Z,71902
2017-03-01T00:52:09.809Z,71907
2017-03-01T00:52:20.338Z,71911
2017-03-01T00:52:30.494Z,71913
2017-03-01T00:52:41.063Z,71912
2017-03-01T00:52:51.617Z,71908
2017-03-01T00:53:02.150Z,71907
2017-03-01T00:53:12.728Z,71904
2017-03-01T00:53:23.267Z,71907
2017-03-01T00:53:33.469Z,71909
2017-03-01T00:53:43.648Z,71903
2017-03-01T00:53:54.174Z,71898
2017-03-01T00:54:04.715Z,71895
2017-03-01T00:54:15.283Z,71905
2017-03-01T00:54:25.480Z,71902
2017-03-01T00:54:35.624Z,71904
2017-03-01T00:54:46.152Z,71901
2017-03-01T00:54:56.364Z,71906
2017-03-01T00:55:06.899Z,71910
2017-03-01T00:55:17.481Z,71903
2017-03-01T00:55:28.028Z,71900
2017-03-01T00:55:37.905Z,71904
2017-03-01T00:55:48.468Z,71914
2017-03-01T00:55:59.018Z,71907
2017-03-01T00:56:09.574Z,71902
2017-03-01T00:56:20.126Z,71905
2017-03-01T00:56:30.684Z,71903
2017-03-01T00:56:41.220Z,71904
2017-03-01T00:56:51.386Z,71899
2017-03-01T00:57:01.565Z,71902
2017-03-01T00:57:12.135Z,71894
2017-03-01T00:57:22.292Z,71893
2017-03-01T00:57:32.848Z,71885
2017-03-01T00:57:43.434Z,71872
2017-03-01T00:57:53.981Z,71873
2017-03-01T00:58:04.152Z,71873
2017-03-01T00:58:14.679Z,71870
2017-03-01T00:58:24.837Z,71866
2017-03-01T00:58:35.006Z,71867
2017-03-01T00:58:45.559Z,71867
2017-03-01T00:58:56.096Z,71876
2017-03-01T00:59:06.310Z,71882
2017-03-01T00:59:16.852Z,71882
2017-03-01T00:59:27.399Z,71892
2017-03-01T00:59:37.930Z,71894
2017-03-01T00:59:48.496Z,71892
2017-03-01T00:59:59.041Z,71895
2017-03-01T01:00:09.200Z,71901
2017-03-01T01:00:19.734Z,71907
2017-03-01T01:00:29.948Z,71913
2017-03-01T01:00:40.517Z,71912
2017-03-01T01:00:51.093Z,71914
2017-03-01T01:01:01.646Z,71918
2017-03-01T01:01:12.197Z,71917
2017-03-01T01:01:22.750Z,71916
2017-03-01T01:01:32.935Z,71919
2017-03-01T01:01:43.504Z,71922
2017-03-01T01:01:54.123Z,71927
2017-03-01T01:02:04.746Z,71925
2017-03-01T01:02:15.285Z,71930
2017-03-01T01:02:25.805Z,71930
2017-03-01T01:02:36.356Z,71936
2017-03-01T01:02:46.885Z,71932
2017-03-01T01:02:57.446Z,71933
2017-03-01T01:03:07.600Z,71931
2017-03-01T01:03:18.178Z,71932
2017-03-01T01:03:28.733Z,71930
2017-03-01T01:03:38.923Z,71934
2017-03-01T01:03:49.480Z,71935
2017-03-01T01:04:00.017Z,71934
2017-03-01T01:04:10.595Z,71935
2017-03-01T01:04:20.741Z,71934
2017-03-01T01:04:30.186Z,71933
2017-03-01T01:04:40.372Z,71942
2017-03-01T01:04:50.928Z,71948
2017-03-01T01:05:01.519Z,71950
2017-03-01T01:05:12.068Z,71950
2017-03-01T01:05:22.654Z,71950
2017-03-01T01:05:33.205Z,71945
2017-03-01T01:05:43.746Z,71940
2017-03-01T01:05:54.291Z,71936
2017-03-01T01:06:04.890Z,71938
2017-03-01T01:06:15.075Z,71937
2017-03-01T01:06:24.907Z,71936
2017-03-01T01:06:35.478Z,71936
2017-03-01T01:06:45.648Z,71931
2017-03-01T01:06:56.190Z,71927
2017-03-01T01:07:06.779Z,71928
2017-03-01T01:07:17.342Z,71926
2017-03-01T01:07:27.912Z,71929
2017-03-01T01:07:38.479Z,71936
2017-03-01T01:07:49.016Z,71937
2017-03-01T01:07:59.573Z,71943
2017-03-01T01:08:10.142Z,71942
2017-03-01T01:08:20.709Z,71948
2017-03-01T01:08:31.285Z,71951
2017-03-01T01:08:41.474Z,71953
2017-03-01T01:08:51.661Z,71953
2017-03-01T01:09:02.227Z,71954
2017-03-01T01:09:12.818Z,71953
2017-03-01T01:09:23.369Z,71948
2017-03-01T01:09:33.906Z,71948
2017-03-01T01:09:44.443Z,71930
2017-03-01T01:09:55.039Z,71926
2017-03-01T01:10:05.551Z,71930
2017-03-01T01:10:15.724Z,71927
2017-03-01T01:10:26.298Z,71926
2017-03-01T01:10:36.802Z,71930
2017-03-01T01:10:46.984Z,71927
2017-03-01T01:10:57.511Z,71932
2017-03-01T01:11:08.061Z,71938
2017-03-01T01:11:18.596Z,71942
2017-03-01T01:11:29.132Z,71935
2017-03-01T01:11:39.691Z,71929
2017-03-01T01:11:49.873Z,71928
2017-03-01T01:12:00.049Z,71923
2017-03-01T01:12:10.642Z,71922
2017-03-01T01:12:20.466Z,71928
2017-03-01T01:12:30.996Z,71934
2017-03-01T01:12:41.177Z,71945
2017-03-01T01:12:51.352Z,71948
2017-03-01T01:13:01.921Z,71943
2017-03-01T01:13:12.470Z,71940
2017-03-01T01:13:23.022Z,71931
2017-03-01T01:13:33.571Z,71923
2017-03-01T01:13:44.100Z,71906
2017-03-01T01:13:54.652Z,71915
2017-03-01T01:14:05.196Z,71902
2017-03-01T01:14:15.033Z,71888
2017-03-01T01:14:25.578Z,71892
2017-03-01T01:14:36.113Z,71882
2017-03-01T01:14:46.661Z,71861
2017-03-01T01:14:57.293Z,71853
2017-03-01T01:15:07.873Z,71868
2017-03-01T01:15:18.405Z,71851
2017-03-01T01:15:28.944Z,71842
2017-03-01T01:15:39.147Z,71830
2017-03-01T01:15:49.672Z,71847
2017-03-01T01:16:00.220Z,71865
2017-03-01T01:16:10.413Z,71880
2017-03-01T01:16:20.975Z,71889
2017-03-01T01:16:31.517Z,71896
2017-03-01T01:16:42.118Z,71903
2017-03-01T01:16:52.320Z,71910
2017-03-01T01:17:02.903Z,71912
2017-03-01T01:17:13.446Z,71902
2017-03-01T01:17:24.003Z,71883
2017-03-01T01:17:34.193Z,71872
2017-03-01T01:17:44.774Z,71873
2017-03-01T01:17:54.922Z,71867
2017-03-01T01:18:05.455Z,71887
2017-03-01T01:18:15.652Z,71893
2017-03-01T01:18:25.825Z,71890
2017-03-01T01:18:36.389Z,71879
2017-03-01T01:18:46.964Z,71877
2017-03-01T01:18:57.525Z,71880
2017-03-01T01:19:08.057Z,71866
2017-03-01T01:19:18.598Z,71866
2017-03-01T01:19:29.184Z,71855
2017-03-01T01:19:39.371Z,71866
2017-03-01T01:19:49.920Z,71884
2017-03-01T01:20:00.094Z,71897
2017-03-01T01:20:10.620Z,71897
2017-03-01T01:20:20.795Z,71899
2017-03-01T01:20:31.344Z,71903
2017-03-01T01:20:41.527Z,71910
2017-03-01T01:20:52.071Z,71911
2017-03-01T01:21:02.618Z,71902
2017-03-01T01:21:13.169Z,71884
2017-03-01T01:21:23.348Z,71878
2017-03-01T01:21:33.533Z,71884
2017-03-01T01:21:44.069Z,71878
2017-03-01T01:21:54.631Z,71888
2017-03-01T01:22:04.869Z,71888
2017-03-01T01:22:15.408Z,71888
2017-03-01T01:22:25.962Z,71889
2017-03-01T01:22:36.503Z,71897
2017-03-01T01:22:47.050Z,71904
2017-03-01T01:22:57.601Z,71906
2017-03-01T01:23:08.171Z,71913
2017-03-01T01:23:18.726Z,71919
2017-03-01T01:23:29.279Z,71917
2017-03-01T01:23:39.878Z,71913
2017-03-01T01:23:50.421Z,71904
2017-03-01T01:24:00.999Z,71904
2017-03-01T01:24:11.557Z,71907
2017-03-01T01:24:21.372Z,71920
2017-03-01T01:24:31.520Z,71902
2017-03-01T01:24:41.686Z,71900
2017-03-01T01:24:52.280Z,71903
2017-03-01T01:25:02.838Z,71893
2017-03-01T01:25:13.394Z,71895
2017-03-01T01:25:23.951Z,71900
2017-03-01T01:25:34.125Z,71895
2017-03-01T01:25:44.689Z,71900
2017-03-01T01:25:54.504Z,71919
2017-03-01T01:26:05.050Z,71923
2017-03-01T01:26:15.200Z,71908
2017-03-01T01:26:25.387Z,71890
2017-03-01T01:26:35.920Z,71893
2017-03-01T01:26:46.481Z,71901
2017-03-01T01:26:57.016Z,71910
2017-03-01T01:27:07.567Z,71912
2017-03-01T01:27:18.103Z,71919
2017-03-01T01:27:28.289Z,71913
2017-03-01T01:27:38.871Z,71909
2017-03-01T01:27:49.059Z,71906
2017-03-01T01:27:59.625Z,71902
2017-03-01T01:28:10.188Z,71901
2017-03-01T01:28:20.733Z,71894
2017-03-01T01:28:30.901Z,71880
2017-03-01T01:28:41.083Z,71877
2017-03-01T01:28:51.613Z,71879
2017-03-01T01:29:01.793Z,71891
2017-03-01T01:29:12.341Z,71892
2017-03-01T01:29:22.915Z,71895
2017-03-01T01:29:33.526Z,71891
2017-03-01T01:29:44.055Z,71899
2017-03-01T01:29:54.619Z,71899
2017-03-01T01:30:05.161Z,71892
2017-03-01T01:30:15.683Z,71895
2017-03-01T01:30:26.247Z,71900
2017-03-01T01:30:36.443Z,71902
2017-03-01T01:30:46.997Z,71906
2017-03-01T01:30:57.550Z,71910
2017-03-01T01:31:08.104Z,71896
2017-03-01T01:31:18.667Z,71896
2017-03-01T01:31:28.839Z,71896
2017-03-01T01:31:39.050Z,71889
2017-03-01T01:31:49.604Z,71901
2017-03-01T01:32:00.173Z,71892
2017-03-01T01:32:10.704Z,71881
2017-03-01T01:32:20.887Z,71878
2017-03-01T01:32:31.445Z,71878
2017-03-01T01:32:42.043Z,71886
2017-03-01T01:32:52.579Z,71890
2017-03-01T01:33:03.122Z,71898
2017-03-01T01:33:13.656Z,71896
2017-03-01T01:33:23.827Z,71882
2017-03-01T01:33:34.024Z,71872
2017-03-01T01:33:44.185Z,71875
2017-03-01T01:33:54.747Z,71886
2017-03-01T01:34:04.967Z,71881
2017-03-01T01:34:15.529Z,71893
2017-03-01T01:34:26.072Z,71876
2017-03-01T01:34:36.628Z,71860
2017-03-01T01:34:47.194Z,71858
2017-03-01T01:34:57.769Z,71861
2017-03-01T01:35:08.351Z,71865
2017-03-01T01:35:18.920Z,71875
2017-03-01T01:35:29.479Z,71877
2017-03-01T01:35:40.013Z,71873
2017-03-01T01:35:50.547Z,71868
2017-03-01T01:36:01.097Z,71867
2017-03-01T01:36:11.640Z,71878
2017-03-01T01:36:22.240Z,71878
2017-03-01T01:36:32.393Z,71880
2017-03-01T01:36:42.953Z,71880
2017-03-01T01:36:53.517Z,71879
2017-03-01T01:37:04.096Z,71882
2017-03-01T01:37:14.666Z,71879
2017-03-01T01:37:24.849Z,71883
2017-03-01T01:37:35.415Z,71882
2017-03-01T01:37:45.625Z,71875
2017-03-01T01:37:56.167Z,71871
2017-03-01T01:38:06.717Z,71867
2017-03-01T01:38:17.247Z,71867
2017-03-01T01:38:27.423Z,71860
2017-03-01T01:38:37.618Z,71861
2017-03-01T01:38:47.810Z,71872
2017-03-01T01:38:58.385Z,71874
2017-03-01T01:39:08.554Z,71873
2017-03-01T01:39:19.092Z,71879
2017-03-01T01:39:29.632Z,71880
2017-03-01T01:39:39.828Z,71877
2017-03-01T01:39:50.400Z,71884
2017-03-01T01:40:00.941Z,71888
2017-03-01T01:40:11.491Z,71888
2017-03-01T01:40:22.043Z,71884
2017-03-01T01:40:32.210Z,71892
2017-03-01T01:40:42.762Z,71894
2017-03-01T01:40:52.937Z,71896
2017-03-01T01:41:03.481Z,71896
2017-03-01T01:41:14.038Z,71894
2017-03-01T01:41:24.567Z,71895
2017-03-01T01:41:34.754Z,71897
2017-03-01T01:41:44.970Z,71899
2017-03-01T01:41:55.161Z,71903
2017-03-01T01:42:05.735Z,71904
2017-03-01T01:42:16.284Z,71898
2017-03-01T01:42:26.448Z,71901
2017-03-01T01:42:36.998Z,71904
2017-03-01T01:42:47.579Z,71905
2017-03-01T01:42:58.104Z,71905
2017-03-01T01:43:08.632Z,71909
2017-03-01T01:43:19.178Z,71913
2017-03-01T01:43:29.707Z,71914
2017-03-01T01:43:39.884Z,71912
2017-03-01T01:43:50.401Z,71906
2017-03-01T01:44:00.184Z,71908
2017-03-01T01:44:10.753Z,71912
2017-03-01T01:44:20.924Z,71910
2017-03-01T01:44:31.120Z,71905
2017-03-01T01:44:41.677Z,71898
2017-03-01T01:44:52.234Z,71899
2017-03-01T01:45:02.446Z,71901
2017-03-01T01:45:13.024Z,71897
2017-03-01T01:45:23.638Z,71901
2017-03-01T01:45:34.182Z,71902
2017-03-01T01:45:44.717Z,71908
2017-03-01T01:45:55.276Z,71909
2017-03-01T01:46:05.795Z,71903
2017-03-01T01:46:16.351Z,71902
2017-03-01T01:46:26.946Z,71899
2017-03-01T01:46:37.119Z,71897
2017-03-01T01:46:47.679Z,71900
2017-03-01T01:46:58.208Z,71901
2017-03-01T01:47:08.755Z,71905
2017-03-01T01:47:19.313Z,71902
2017-03-01T01:47:29.855Z,71905
2017-03-01T01:47:40.402Z,71904
2017-03-01T01:47:50.959Z,71903
2017-03-01T01:48:01.543Z,71896
2017-03-01T01:48:11.732Z,71901
2017-03-01T01:48:22.278Z,71903
2017-03-01T01:48:32.838Z,71907
2017-03-01T01:48:43.400Z,71909
2017-03-01T01:48:53.578Z,71912
2017-03-01T01:49:04.158Z,71918
2017-03-01T01:49:14.746Z,71918
2017-03-01T01:49:25.317Z,71922
2017-03-01T01:49:35.514Z,71929
2017-03-01T01:49:46.067Z,71930
2017-03-01T01:49:56.647Z,71936
2017-03-01T01:50:06.850Z,71930
2017-03-01T01:50:17.056Z,71925
2017-03-01T01:50:27.616Z,71916
2017-03-01T01:50:38.187Z,71904
2017-03-01T01:50:48.398Z,71899
2017-03-01T01:50:58.946Z,71905
2017-03-01T01:51:09.476Z,71907
2017-03-01T01:51:19.656Z,71915
2017-03-01T01:51:29.834Z,71922
2017-03-01T01:51:40.377Z,71929
2017-03-01T01:51:50.576Z,71920
2017-03-01T01:52:01.146Z,71914
2017-03-01T01:52:11.337Z,71886
2017-03-01T01:52:21.499Z,71895
2017-03-01T01:52:32.051Z,71892
2017-03-01T01:52:42.224Z,71873
2017-03-01T01:52:52.788Z,71875
2017-03-01T01:53:03.342Z,71867
2017-03-01T01:53:13.898Z,71872
2017-03-01T01:53:24.454Z,71880
2017-03-01T01:53:34.271Z,71880
2017-03-01T01:53:44.865Z,71882
2017-03-01T01:53:55.382Z,71888
2017-03-01T01:54:05.976Z,71882
2017-03-01T01:54:16.539Z,71887
2017-03-01T01:54:27.075Z,71891
2017-03-01T01:54:37.242Z,71891
2017-03-01T01:54:47.801Z,71887
2017-03-01T01:54:57.639Z,71886
2017-03-01T01:55:08.221Z,71887
2017-03-01T01:55:18.784Z,71887
2017-03-01T01:55:28.984Z,71889
2017-03-01T01:55:39.540Z,71889
2017-03-01T01:55:50.110Z,71888
2017-03-01T01:56:00.303Z,71890
2017-03-01T01:56:10.875Z,71893
2017-03-01T01:56:21.038Z,71895
2017-03-01T01:56:31.572Z,71897
2017-03-01T01:56:42.171Z,71894
2017-03-01T01:56:52.717Z,71899
2017-03-01T01:57:02.911Z,71894
2017-03-01T01:57:13.469Z,71898
2017-03-01T01:57:24.022Z,71894
2017-03-01T01:57:34.244Z,71895
2017-03-01T01:57:44.828Z,71893
2017-03-01T01:57:55.004Z,71894
2017-03-01T01:58:05.187Z,71896
2017-03-01T01:58:15.748Z,71895
2017-03-01T01:58:25.900Z,71896
2017-03-01T01:58:36.457Z,71896
2017-03-01T01:58:47.064Z,71898
2017-03-01T01:58:57.226Z,71904
2017-03-01T01:59:07.776Z,71910
2017-03-01T01:59:18.368Z,71912
2017-03-01T01:59:28.543Z,71917
2017-03-01T01:59:39.099Z,71920
2017-03-01T01:59:49.625Z,71902
2017-03-01T02:00:00.173Z,71900
2017-03-01T02:00:10.697Z,71902
2017-03-01T02:00:21.222Z,71903
2017-03-01T02:00:31.759Z,71900
2017-03-01T02:00:42.300Z,71894
2017-03-01T02:00:52.904Z,71897
2017-03-01T02:01:03.453Z,71898
2017-03-01T02:01:14.067Z,71899
2017-03-01T02:01:24.622Z,71903
2017-03-01T02:01:34.072Z,71904
2017-03-01T02:01:44.600Z,71902
2017-03-01T02:01:55.162Z,71903
2017-03-01T02:02:05.719Z,71906
2017-03-01T02:02:16.292Z,71903
2017-03-01T02:02:26.825Z,71904
2017-03-01T02:02:37.401Z,71904
2017-03-01T02:02:47.568Z,71899
2017-03-01T02:02:57.733Z,71904
2017-03-01T02:03:07.911Z,71898
2017-03-01T02:03:18.448Z,71896
2017-03-01T02:03:28.648Z,71895
2017-03-01T02:03:38.816Z,71894
2017-03-01T02:03:49.386Z,71897
2017-03-01T02:03:59.932Z,71907
2017-03-01T02:04:10.109Z,71902
2017-03-01T02:04:20.730Z,71902
2017-03-01T02:04:30.901Z,71898
2017-03-01T02:04:41.434Z,71902
2017-03-01T02:04:52.016Z,71901
2017-03-01T02:05:02.589Z,71908
2017-03-01T02:05:12.773Z,71909
2017-03-01T02:05:23.367Z,71907
2017-03-01T02:05:33.580Z,71904
2017-03-01T02:05:44.140Z,71898
2017-03-01T02:05:54.678Z,71901
2017-03-01T02:06:05.237Z,71904
2017-03-01T02:06:15.768Z,71908
2017-03-01T02:06:26.339Z,71911
2017-03-01T02:06:36.505Z,71912
2017-03-01T02:06:47.042Z,71911
2017-03-01T02:06:57.567Z,71915
2017-03-01T02:07:08.142Z,71918
2017-03-01T02:07:18.680Z,71916
2017-03-01T02:07:29.233Z,71916
2017-03-01T02:07:39.793Z,71909
2017-03-01T02:07:50.331Z,71904
2017-03-01T02:08:00.871Z,71913
2017-03-01T02:08:10.700Z,71899
2017-03-01T02:08:21.257Z,71895
2017-03-01T02:08:31.792Z,71896
2017-03-01T02:08:41.969Z,71900
2017-03-01T02:08:52.534Z,71906
2017-03-01T02:09:03.072Z,71906
2017-03-01T02:09:13.642Z,71893
2017-03-01T02:09:23.419Z,71892
2017-03-01T02:09:33.977Z,71892
2017-03-01T02:09:44.519Z,71906
2017-03-01T02:09:55.051Z,71909
2017-03-01T02:10:05.250Z,71907
2017-03-01T02:10:15.394Z,71910
2017-03-01T02:10:25.963Z,71918
2017-03-01T02:10:36.512Z,71910
2017-03-01T02:10:47.113Z,71908
2017-03-01T02:10:57.677Z,71899
2017-03-01T02:11:07.862Z,71894
2017-03-01T02:11:18.400Z,71895
2017-03-01T02:11:28.941Z,71889
2017-03-01T02:11:38.732Z,71891
2017-03-01T02:11:49.290Z,71895
2017-03-01T02:11:59.858Z,71900
2017-03-01T02:12:10.041Z,71896
2017-03-01T02:12:20.220Z,71897
2017-03-01T02:12:30.779Z,71892
2017-03-01T02:12:41.329Z,71901
2017-03-01T02:12:51.895Z,71900
2017-03-01T02:13:02.423Z,71903
2017-03-01T02:13:12.630Z,71903
2017-03-01T02:13:23.191Z,71908
2017-03-01T02:13:33.748Z,71908
2017-03-01T02:13:43.573Z,71908
2017-03-01T02:13:54.124Z,71911
2017-03-01T02:14:04.651Z,71907
2017-03-01T02:14:14.840Z,71901
2017-03-01T02:14:25.402Z,71909